sensor_id;sensor_type;location;lat;lon;timestamp;pressure;altitude;pressure_sealevel;temperature;humidity
54417;BME280;40326;51.220;7.250;2022-08-05T00:00:02;98170.56;;;19.55;100.00
54417;BME280;40326;51.220;7.250;2022-08-05T00:02:27;98165.66;;;19.52;100.00
54417;BME280;40326;51.220;7.250;2022-08-05T00:04:53;98166.72;;;19.49;100.00
54417;BME280;40326;51.220;7.250;2022-08-05T00:07:18;98169.22;;;19.61;100.00
54417;BME280;40326;51.220;7.250;2022-08-05T00:09:43;98173.44;;;19.52;100.00
54417;BME280;40326;51.220;7.250;2022-08-05T00:12:09;98176.84;;;19.52;100.00
54417;BME280;40326;51.220;7.250;2022-08-05T00:14:34;98184.06;;;19.49;100.00
54417;BME280;40326;51.220;7.250;2022-08-05T00:16:59;98176.28;;;19.39;100.00
54417;BME280;40326;51.220;7.250;2022-08-05T00:19:25;98167.28;;;19.34;100.00
54417;BME280;40326;51.220;7.250;2022-08-05T00:21:51;98173.84;;;19.28;100.00
54417;BME280;40326;51.220;7.250;2022-08-05T00:24:16;98155.81;;;19.26;100.00
54417;BME280;40326;51.220;7.250;2022-08-05T00:26:41;98163.47;;;19.28;100.00
54417;BME280;40326;51.220;7.250;2022-08-05T00:29:07;98164.56;;;19.16;100.00
54417;BME280;40326;51.220;7.250;2022-08-05T00:31:32;98164.28;;;19.19;100.00
54417;BME280;40326;51.220;7.250;2022-08-05T00:33:57;98155.53;;;19.20;100.00
54417;BME280;40326;51.220;7.250;2022-08-05T00:36:23;98150.34;;;19.20;100.00
54417;BME280;40326;51.220;7.250;2022-08-05T00:38:49;98141.59;;;19.21;100.00
54417;BME280;40326;51.220;7.250;2022-08-05T00:41:26;98142.16;;;19.15;100.00
54417;BME280;40326;51.220;7.250;2022-08-05T00:43:51;98142.69;;;19.09;100.00
54417;BME280;40326;51.220;7.250;2022-08-05T00:46:16;98142.41;;;19.12;100.00
54417;BME280;40326;51.220;7.250;2022-08-05T00:48:42;98144.63;;;19.07;100.00
54417;BME280;40326;51.220;7.250;2022-08-05T00:51:07;98136.41;;;19.02;100.00
54417;BME280;40326;51.220;7.250;2022-08-05T00:53:32;98148.13;;;18.96;100.00
54417;BME280;40326;51.220;7.250;2022-08-05T00:55:58;98150.06;;;18.94;100.00
54417;BME280;40326;51.220;7.250;2022-08-05T00:58:23;98151.28;;;18.90;100.00
54417;BME280;40326;51.220;7.250;2022-08-05T01:00:48;98144.03;;;18.93;100.00
54417;BME280;40326;51.220;7.250;2022-08-05T01:03:13;98144.44;;;18.79;100.00
54417;BME280;40326;51.220;7.250;2022-08-05T01:05:39;98147.06;;;18.89;100.00
54417;BME280;40326;51.220;7.250;2022-08-05T01:08:04;98150.31;;;18.91;100.00
54417;BME280;40326;51.220;7.250;2022-08-05T01:10:42;98153.59;;;18.83;100.00
54417;BME280;40326;51.220;7.250;2022-08-05T01:13:15;98160.63;;;18.62;100.00
54417;BME280;40326;51.220;7.250;2022-08-05T01:15:49;98165.59;;;18.34;100.00
54417;BME280;40326;51.220;7.250;2022-08-05T01:18:22;98179.22;;;18.36;100.00
54417;BME280;40326;51.220;7.250;2022-08-05T01:29:00;98172.13;;;18.38;100.00
54417;BME280;40326;51.220;7.250;2022-08-05T01:31:35;98173.34;;;18.34;100.00
54417;BME280;40326;51.220;7.250;2022-08-05T01:34:16;98169.22;;;18.32;100.00
54417;BME280;40326;51.220;7.250;2022-08-05T01:36:48;98168.13;;;18.25;100.00
54417;BME280;40326;51.220;7.250;2022-08-05T01:39:15;98172.44;;;18.14;100.00
54417;BME280;40326;51.220;7.250;2022-08-05T01:41:42;98182.41;;;17.89;100.00
54417;BME280;40326;51.220;7.250;2022-08-05T01:44:10;98188.91;;;17.83;100.00
54417;BME280;40326;51.220;7.250;2022-08-05T01:46:38;98201.16;;;17.81;100.00
54417;BME280;40326;51.220;7.250;2022-08-05T01:49:04;98206.09;;;17.84;100.00
54417;BME280;40326;51.220;7.250;2022-08-05T01:51:32;98217.25;;;17.84;100.00
54417;BME280;40326;51.220;7.250;2022-08-05T01:54:02;98211.47;;;17.71;100.00
54417;BME280;40326;51.220;7.250;2022-08-05T01:56:30;98211.66;;;17.68;100.00
54417;BME280;40326;51.220;7.250;2022-08-05T01:58:57;98216.97;;;17.67;100.00
54417;BME280;40326;51.220;7.250;2022-08-05T02:01:23;98221.00;;;17.71;100.00
54417;BME280;40326;51.220;7.250;2022-08-05T02:03:50;98226.03;;;17.61;100.00
54417;BME280;40326;51.220;7.250;2022-08-05T02:06:16;98219.94;;;17.62;100.00
54417;BME280;40326;51.220;7.250;2022-08-05T02:08:42;98225.47;;;17.57;100.00
54417;BME280;40326;51.220;7.250;2022-08-05T02:11:10;98241.34;;;17.64;100.00
54417;BME280;40326;51.220;7.250;2022-08-05T02:13:41;98244.44;;;17.58;100.00
54417;BME280;40326;51.220;7.250;2022-08-05T02:16:27;98242.91;;;17.55;100.00
54417;BME280;40326;51.220;7.250;2022-08-05T02:19:02;98249.34;;;17.61;100.00
54417;BME280;40326;51.220;7.250;2022-08-05T02:21:35;98268.63;;;17.68;100.00
54417;BME280;40326;51.220;7.250;2022-08-05T02:24:05;98295.28;;;17.91;100.00
54417;BME280;40326;51.220;7.250;2022-08-05T02:26:37;98305.34;;;18.26;100.00
54417;BME280;40326;51.220;7.250;2022-08-05T02:29:05;98289.09;;;18.45;100.00
54417;BME280;40326;51.220;7.250;2022-08-05T02:31:33;98277.06;;;18.65;100.00
54417;BME280;40326;51.220;7.250;2022-08-05T02:34:07;98265.63;;;18.77;100.00
54417;BME280;40326;51.220;7.250;2022-08-05T02:36:34;98265.16;;;18.62;100.00
54417;BME280;40326;51.220;7.250;2022-08-05T02:39:02;98269.84;;;18.48;100.00
54417;BME280;40326;51.220;7.250;2022-08-05T02:41:30;98279.63;;;18.34;100.00
54417;BME280;40326;51.220;7.250;2022-08-05T02:43:57;98298.28;;;18.28;100.00
54417;BME280;40326;51.220;7.250;2022-08-05T02:46:25;98308.63;;;18.28;100.00
54417;BME280;40326;51.220;7.250;2022-08-05T02:48:53;98323.84;;;18.22;100.00
54417;BME280;40326;51.220;7.250;2022-08-05T02:51:19;98328.91;;;18.23;100.00
54417;BME280;40326;51.220;7.250;2022-08-05T02:53:46;98337.28;;;18.27;100.00
54417;BME280;40326;51.220;7.250;2022-08-05T02:56:14;98343.78;;;18.21;100.00
54417;BME280;40326;51.220;7.250;2022-08-05T02:58:42;98336.88;;;18.31;100.00
54417;BME280;40326;51.220;7.250;2022-08-05T03:01:17;98337.06;;;18.39;100.00
54417;BME280;40326;51.220;7.250;2022-08-05T03:03:47;98343.13;;;18.50;100.00
54417;BME280;40326;51.220;7.250;2022-08-05T03:06:13;98340.00;;;18.25;100.00
54417;BME280;40326;51.220;7.250;2022-08-05T03:08:40;98367.75;;;18.34;100.00
54417;BME280;40326;51.220;7.250;2022-08-05T03:11:25;98381.06;;;18.30;100.00
54417;BME280;40326;51.220;7.250;2022-08-05T03:13:52;98384.66;;;18.18;100.00
54417;BME280;40326;51.220;7.250;2022-08-05T03:16:19;98410.16;;;18.01;100.00
54417;BME280;40326;51.220;7.250;2022-08-05T03:18:44;98472.03;;;17.72;100.00
54417;BME280;40326;51.220;7.250;2022-08-05T03:21:10;98486.25;;;17.78;100.00
54417;BME280;40326;51.220;7.250;2022-08-05T03:23:37;98425.16;;;17.64;100.00
54417;BME280;40326;51.220;7.250;2022-08-05T03:26:03;98348.81;;;17.47;100.00
54417;BME280;40326;51.220;7.250;2022-08-05T03:28:29;98338.38;;;17.38;100.00
54417;BME280;40326;51.220;7.250;2022-08-05T03:30:57;98352.25;;;17.37;100.00
54417;BME280;40326;51.220;7.250;2022-08-05T03:33:24;98331.78;;;17.34;100.00
54417;BME280;40326;51.220;7.250;2022-08-05T03:35:50;98293.00;;;17.22;100.00
54417;BME280;40326;51.220;7.250;2022-08-05T03:38:16;98277.00;;;17.28;100.00
54417;BME280;40326;51.220;7.250;2022-08-05T03:40:42;98306.84;;;17.33;100.00
54417;BME280;40326;51.220;7.250;2022-08-05T03:43:08;98326.84;;;17.30;100.00
54417;BME280;40326;51.220;7.250;2022-08-05T03:45:33;98342.94;;;17.34;100.00
54417;BME280;40326;51.220;7.250;2022-08-05T03:47:58;98354.25;;;17.44;100.00
54417;BME280;40326;51.220;7.250;2022-08-05T03:50:34;98349.16;;;17.43;100.00
54417;BME280;40326;51.220;7.250;2022-08-05T03:53:14;98346.13;;;17.38;100.00
54417;BME280;40326;51.220;7.250;2022-08-05T03:55:52;98343.31;;;17.41;100.00
54417;BME280;40326;51.220;7.250;2022-08-05T03:58:23;98345.44;;;17.36;100.00
54417;BME280;40326;51.220;7.250;2022-08-05T04:00:54;98345.66;;;17.33;100.00
54417;BME280;40326;51.220;7.250;2022-08-05T04:03:22;98334.63;;;17.30;100.00
54417;BME280;40326;51.220;7.250;2022-08-05T04:05:49;98326.59;;;17.34;100.00
54417;BME280;40326;51.220;7.250;2022-08-05T04:08:15;98327.91;;;17.39;100.00
54417;BME280;40326;51.220;7.250;2022-08-05T04:10:42;98321.69;;;17.30;100.00
54417;BME280;40326;51.220;7.250;2022-08-05T04:13:09;98307.81;;;17.20;100.00
54417;BME280;40326;51.220;7.250;2022-08-05T04:15:34;98315.22;;;17.36;100.00
54417;BME280;40326;51.220;7.250;2022-08-05T04:18:01;98310.50;;;17.30;100.00
54417;BME280;40326;51.220;7.250;2022-08-05T04:20:28;98303.31;;;17.34;100.00
54417;BME280;40326;51.220;7.250;2022-08-05T04:22:53;98299.44;;;17.39;100.00
54417;BME280;40326;51.220;7.250;2022-08-05T04:25:20;98298.78;;;17.26;100.00
54417;BME280;40326;51.220;7.250;2022-08-05T04:27:45;98309.22;;;17.24;100.00
54417;BME280;40326;51.220;7.250;2022-08-05T04:30:10;98303.34;;;17.22;100.00
54417;BME280;40326;51.220;7.250;2022-08-05T04:32:36;98306.16;;;17.30;100.00
54417;BME280;40326;51.220;7.250;2022-08-05T04:35:02;98292.78;;;17.25;100.00
54417;BME280;40326;51.220;7.250;2022-08-05T04:37:27;98299.09;;;17.33;100.00
54417;BME280;40326;51.220;7.250;2022-08-05T04:39:52;98288.72;;;17.33;100.00
54417;BME280;40326;51.220;7.250;2022-08-05T04:42:18;98271.91;;;17.38;100.00
54417;BME280;40326;51.220;7.250;2022-08-05T04:44:43;98266.16;;;17.35;100.00
54417;BME280;40326;51.220;7.250;2022-08-05T04:47:08;98269.66;;;17.45;100.00
54417;BME280;40326;51.220;7.250;2022-08-05T04:49:34;98272.00;;;17.48;100.00
54417;BME280;40326;51.220;7.250;2022-08-05T04:51:59;98276.00;;;17.41;100.00
54417;BME280;40326;51.220;7.250;2022-08-05T04:54:24;98280.97;;;17.44;100.00
54417;BME280;40326;51.220;7.250;2022-08-05T04:56:53;98303.53;;;17.53;100.00
54417;BME280;40326;51.220;7.250;2022-08-05T04:59:19;98315.75;;;17.62;100.00
54417;BME280;40326;51.220;7.250;2022-08-05T05:01:45;98287.94;;;17.64;100.00
54417;BME280;40326;51.220;7.250;2022-08-05T05:04:10;98265.25;;;17.56;100.00
54417;BME280;40326;51.220;7.250;2022-08-05T05:06:36;98273.09;;;17.66;100.00
54417;BME280;40326;51.220;7.250;2022-08-05T05:09:01;98296.84;;;17.82;100.00
54417;BME280;40326;51.220;7.250;2022-08-05T05:11:27;98300.91;;;17.96;100.00
54417;BME280;40326;51.220;7.250;2022-08-05T05:13:52;98304.31;;;17.97;100.00
54417;BME280;40326;51.220;7.250;2022-08-05T05:16:17;98323.38;;;17.96;100.00
54417;BME280;40326;51.220;7.250;2022-08-05T05:18:43;98342.66;;;17.82;100.00
54417;BME280;40326;51.220;7.250;2022-08-05T05:21:08;98345.84;;;17.74;100.00
54417;BME280;40326;51.220;7.250;2022-08-05T05:23:33;98351.13;;;17.84;100.00
54417;BME280;40326;51.220;7.250;2022-08-05T05:25:59;98341.66;;;17.94;100.00
54417;BME280;40326;51.220;7.250;2022-08-05T05:28:24;98339.06;;;17.94;100.00
54417;BME280;40326;51.220;7.250;2022-08-05T05:30:50;98320.13;;;17.94;100.00
54417;BME280;40326;51.220;7.250;2022-08-05T05:33:15;98296.75;;;18.05;100.00
54417;BME280;40326;51.220;7.250;2022-08-05T05:35:40;98323.91;;;18.31;100.00
54417;BME280;40326;51.220;7.250;2022-08-05T05:38:06;98321.47;;;18.30;100.00
54417;BME280;40326;51.220;7.250;2022-08-05T05:40:32;98319.56;;;18.32;100.00
54417;BME280;40326;51.220;7.250;2022-08-05T05:42:57;98323.03;;;18.63;100.00
54417;BME280;40326;51.220;7.250;2022-08-05T05:45:23;98318.75;;;18.31;100.00
54417;BME280;40326;51.220;7.250;2022-08-05T05:47:48;98314.28;;;18.33;100.00
54417;BME280;40326;51.220;7.250;2022-08-05T05:50:15;98318.59;;;18.33;100.00
54417;BME280;40326;51.220;7.250;2022-08-05T05:52:42;98328.59;;;18.37;100.00
54417;BME280;40326;51.220;7.250;2022-08-05T05:55:12;98341.50;;;18.07;100.00
54417;BME280;40326;51.220;7.250;2022-08-05T05:57:39;98339.03;;;18.26;100.00
54417;BME280;40326;51.220;7.250;2022-08-05T06:00:07;98334.41;;;18.09;100.00
54417;BME280;40326;51.220;7.250;2022-08-05T06:02:33;98346.84;;;18.15;100.00
54417;BME280;40326;51.220;7.250;2022-08-05T06:05:01;98343.88;;;17.99;100.00
54417;BME280;40326;51.220;7.250;2022-08-05T06:07:26;98341.25;;;18.10;100.00
54417;BME280;40326;51.220;7.250;2022-08-05T06:09:52;98339.22;;;18.13;100.00
54417;BME280;40326;51.220;7.250;2022-08-05T06:12:17;98333.34;;;18.11;100.00
54417;BME280;40326;51.220;7.250;2022-08-05T06:14:42;98338.34;;;18.24;100.00
54417;BME280;40326;51.220;7.250;2022-08-05T06:17:09;98333.81;;;18.05;100.00
54417;BME280;40326;51.220;7.250;2022-08-05T06:19:35;98334.66;;;18.06;100.00
54417;BME280;40326;51.220;7.250;2022-08-05T06:22:04;98324.13;;;18.19;100.00
54417;BME280;40326;51.220;7.250;2022-08-05T06:24:30;98330.59;;;18.24;100.00
54417;BME280;40326;51.220;7.250;2022-08-05T06:26:56;98338.28;;;18.35;100.00
54417;BME280;40326;51.220;7.250;2022-08-05T06:29:21;98325.06;;;18.38;100.00
54417;BME280;40326;51.220;7.250;2022-08-05T06:31:47;98330.63;;;18.55;100.00
54417;BME280;40326;51.220;7.250;2022-08-05T06:34:12;98325.84;;;18.71;100.00
54417;BME280;40326;51.220;7.250;2022-08-05T06:36:37;98315.03;;;18.96;100.00
54417;BME280;40326;51.220;7.250;2022-08-05T06:39:03;98309.69;;;18.98;100.00
54417;BME280;40326;51.220;7.250;2022-08-05T06:41:28;98311.66;;;19.06;100.00
54417;BME280;40326;51.220;7.250;2022-08-05T06:43:54;98317.13;;;18.82;100.00
54417;BME280;40326;51.220;7.250;2022-08-05T06:46:19;98327.84;;;18.67;100.00
54417;BME280;40326;51.220;7.250;2022-08-05T06:48:44;98328.66;;;18.68;100.00
54417;BME280;40326;51.220;7.250;2022-08-05T06:51:10;98330.25;;;18.80;100.00
54417;BME280;40326;51.220;7.250;2022-08-05T06:53:35;98323.63;;;18.66;100.00
54417;BME280;40326;51.220;7.250;2022-08-05T06:56:00;98336.88;;;18.73;100.00
54417;BME280;40326;51.220;7.250;2022-08-05T06:58:28;98345.81;;;18.80;100.00
54417;BME280;40326;51.220;7.250;2022-08-05T07:00:53;98349.19;;;18.60;100.00
54417;BME280;40326;51.220;7.250;2022-08-05T07:03:19;98360.16;;;18.84;100.00
54417;BME280;40326;51.220;7.250;2022-08-05T07:05:44;98356.94;;;18.29;100.00
54417;BME280;40326;51.220;7.250;2022-08-05T07:08:10;98362.81;;;18.31;100.00
54417;BME280;40326;51.220;7.250;2022-08-05T07:10:35;98370.34;;;18.34;100.00
54417;BME280;40326;51.220;7.250;2022-08-05T07:13:01;98368.56;;;18.35;100.00
54417;BME280;40326;51.220;7.250;2022-08-05T07:15:46;98370.63;;;18.41;100.00
54417;BME280;40326;51.220;7.250;2022-08-05T07:18:30;98375.47;;;18.46;100.00
54417;BME280;40326;51.220;7.250;2022-08-05T07:20:56;98379.16;;;18.32;100.00
54417;BME280;40326;51.220;7.250;2022-08-05T07:23:21;98376.47;;;18.33;100.00
54417;BME280;40326;51.220;7.250;2022-08-05T07:25:47;98387.75;;;18.32;100.00
54417;BME280;40326;51.220;7.250;2022-08-05T07:28:12;98398.94;;;18.33;100.00
54417;BME280;40326;51.220;7.250;2022-08-05T07:30:38;98401.78;;;18.09;100.00
54417;BME280;40326;51.220;7.250;2022-08-05T07:33:05;98394.91;;;18.19;100.00
54417;BME280;40326;51.220;7.250;2022-08-05T07:35:31;98404.06;;;18.23;100.00
54417;BME280;40326;51.220;7.250;2022-08-05T07:37:57;98403.84;;;18.15;100.00
54417;BME280;40326;51.220;7.250;2022-08-05T07:40:22;98409.75;;;18.17;100.00
54417;BME280;40326;51.220;7.250;2022-08-05T07:42:48;98409.44;;;18.10;100.00
54417;BME280;40326;51.220;7.250;2022-08-05T07:45:14;98406.00;;;18.10;100.00
54417;BME280;40326;51.220;7.250;2022-08-05T07:47:40;98412.34;;;18.17;100.00
54417;BME280;40326;51.220;7.250;2022-08-05T07:50:06;98412.16;;;18.09;100.00
54417;BME280;40326;51.220;7.250;2022-08-05T07:52:37;98412.28;;;17.96;100.00
54417;BME280;40326;51.220;7.250;2022-08-05T07:55:02;98415.72;;;17.85;100.00
54417;BME280;40326;51.220;7.250;2022-08-05T07:57:28;98422.13;;;17.81;100.00
54417;BME280;40326;51.220;7.250;2022-08-05T07:59:53;98429.41;;;17.76;100.00
54417;BME280;40326;51.220;7.250;2022-08-05T08:02:25;98425.66;;;17.80;100.00
54417;BME280;40326;51.220;7.250;2022-08-05T08:04:51;98439.41;;;17.70;100.00
54417;BME280;40326;51.220;7.250;2022-08-05T08:07:17;98446.94;;;17.84;100.00
54417;BME280;40326;51.220;7.250;2022-08-05T08:09:43;98442.09;;;17.68;100.00
54417;BME280;40326;51.220;7.250;2022-08-05T08:12:09;98448.09;;;17.69;100.00
54417;BME280;40326;51.220;7.250;2022-08-05T08:14:34;98451.06;;;17.64;100.00
54417;BME280;40326;51.220;7.250;2022-08-05T08:17:00;98465.91;;;17.62;100.00
54417;BME280;40326;51.220;7.250;2022-08-05T08:19:25;98468.47;;;17.51;100.00
54417;BME280;40326;51.220;7.250;2022-08-05T08:21:50;98472.00;;;17.50;100.00
54417;BME280;40326;51.220;7.250;2022-08-05T08:24:16;98482.13;;;17.42;100.00
54417;BME280;40326;51.220;7.250;2022-08-05T08:26:41;98484.59;;;17.54;100.00
54417;BME280;40326;51.220;7.250;2022-08-05T08:29:09;98475.09;;;17.44;100.00
54417;BME280;40326;51.220;7.250;2022-08-05T08:31:34;98487.16;;;17.21;100.00
54417;BME280;40326;51.220;7.250;2022-08-05T08:33:59;98480.59;;;17.28;100.00
54417;BME280;40326;51.220;7.250;2022-08-05T08:36:25;98492.00;;;17.37;100.00
54417;BME280;40326;51.220;7.250;2022-08-05T08:38:50;98488.47;;;17.38;100.00
54417;BME280;40326;51.220;7.250;2022-08-05T08:41:21;98491.66;;;17.30;100.00
54417;BME280;40326;51.220;7.250;2022-08-05T08:43:48;98495.06;;;17.30;100.00
54417;BME280;40326;51.220;7.250;2022-08-05T08:46:15;98503.00;;;17.05;100.00
54417;BME280;40326;51.220;7.250;2022-08-05T08:48:44;98507.03;;;17.09;100.00
54417;BME280;40326;51.220;7.250;2022-08-05T08:51:10;98507.16;;;17.08;100.00
54417;BME280;40326;51.220;7.250;2022-08-05T08:53:37;98513.50;;;16.80;100.00
54417;BME280;40326;51.220;7.250;2022-08-05T08:56:03;98516.22;;;16.78;100.00
54417;BME280;40326;51.220;7.250;2022-08-05T08:58:29;98505.81;;;16.67;100.00
54417;BME280;40326;51.220;7.250;2022-08-05T09:00:55;98513.88;;;16.62;100.00
54417;BME280;40326;51.220;7.250;2022-08-05T09:03:21;98525.97;;;16.74;100.00
54417;BME280;40326;51.220;7.250;2022-08-05T09:05:47;98515.94;;;16.46;100.00
54417;BME280;40326;51.220;7.250;2022-08-05T09:08:12;98523.41;;;16.38;100.00
54417;BME280;40326;51.220;7.250;2022-08-05T09:10:40;98526.16;;;16.24;100.00
54417;BME280;40326;51.220;7.250;2022-08-05T09:13:06;98532.09;;;16.37;100.00
54417;BME280;40326;51.220;7.250;2022-08-05T09:15:31;98546.34;;;16.18;100.00
54417;BME280;40326;51.220;7.250;2022-08-05T09:17:57;98546.03;;;16.10;100.00
54417;BME280;40326;51.220;7.250;2022-08-05T09:20:23;98552.84;;;15.99;100.00
54417;BME280;40326;51.220;7.250;2022-08-05T09:23:09;98558.66;;;16.02;100.00
54417;BME280;40326;51.220;7.250;2022-08-05T09:25:37;98557.22;;;15.85;100.00
54417;BME280;40326;51.220;7.250;2022-08-05T09:28:13;98551.97;;;15.87;100.00
54417;BME280;40326;51.220;7.250;2022-08-05T09:33:30;98557.44;;;15.95;100.00
54417;BME280;40326;51.220;7.250;2022-08-05T09:36:00;98564.94;;;15.98;100.00
54417;BME280;40326;51.220;7.250;2022-08-05T09:38:26;98566.72;;;15.98;100.00
54417;BME280;40326;51.220;7.250;2022-08-05T09:40:52;98556.97;;;16.14;100.00
54417;BME280;40326;51.220;7.250;2022-08-05T09:43:44;98559.72;;;16.24;100.00
54417;BME280;40326;51.220;7.250;2022-08-05T09:46:23;98562.34;;;16.48;100.00
54417;BME280;40326;51.220;7.250;2022-08-05T09:48:50;98557.00;;;15.88;100.00
54417;BME280;40326;51.220;7.250;2022-08-05T09:51:33;98555.59;;;15.84;100.00
54417;BME280;40326;51.220;7.250;2022-08-05T09:53:59;98563.00;;;15.89;100.00
54417;BME280;40326;51.220;7.250;2022-08-05T09:56:30;98557.03;;;15.76;100.00
54417;BME280;40326;51.220;7.250;2022-08-05T09:59:06;98556.00;;;15.91;100.00
54417;BME280;40326;51.220;7.250;2022-08-05T10:01:33;98561.25;;;16.02;100.00
54417;BME280;40326;51.220;7.250;2022-08-05T10:04:05;98572.44;;;16.27;100.00
54417;BME280;40326;51.220;7.250;2022-08-05T10:06:31;98562.38;;;16.35;100.00
54417;BME280;40326;51.220;7.250;2022-08-05T10:09:15;98562.13;;;16.27;100.00
54417;BME280;40326;51.220;7.250;2022-08-05T10:11:41;98557.72;;;16.40;100.00
54417;BME280;40326;51.220;7.250;2022-08-05T10:14:24;98550.13;;;16.50;100.00
54417;BME280;40326;51.220;7.250;2022-08-05T10:16:51;98550.50;;;16.32;100.00
54417;BME280;40326;51.220;7.250;2022-08-05T10:19:17;98559.59;;;16.01;100.00
54417;BME280;40326;51.220;7.250;2022-08-05T10:21:42;98565.25;;;16.19;100.00
54417;BME280;40326;51.220;7.250;2022-08-05T10:24:10;98581.81;;;15.91;100.00
54417;BME280;40326;51.220;7.250;2022-08-05T10:26:40;98578.47;;;16.14;100.00
54417;BME280;40326;51.220;7.250;2022-08-05T10:29:07;98582.38;;;16.20;100.00
54417;BME280;40326;51.220;7.250;2022-08-05T10:31:32;98584.03;;;16.08;100.00
54417;BME280;40326;51.220;7.250;2022-08-05T10:33:58;98582.41;;;16.07;100.00
54417;BME280;40326;51.220;7.250;2022-08-05T10:36:24;98597.47;;;16.13;100.00
54417;BME280;40326;51.220;7.250;2022-08-05T10:38:51;98601.78;;;16.26;100.00
54417;BME280;40326;51.220;7.250;2022-08-05T10:41:31;98591.91;;;16.20;100.00
54417;BME280;40326;51.220;7.250;2022-08-05T10:44:04;98607.50;;;16.18;100.00
54417;BME280;40326;51.220;7.250;2022-08-05T10:46:45;98620.50;;;16.16;100.00
54417;BME280;40326;51.220;7.250;2022-08-05T10:49:11;98614.88;;;16.35;100.00
54417;BME280;40326;51.220;7.250;2022-08-05T10:51:43;98609.34;;;16.89;100.00
54417;BME280;40326;51.220;7.250;2022-08-05T10:54:09;98610.53;;;17.20;100.00
54417;BME280;40326;51.220;7.250;2022-08-05T10:56:49;98600.63;;;17.14;100.00
54417;BME280;40326;51.220;7.250;2022-08-05T10:59:23;98596.72;;;17.44;100.00
54417;BME280;40326;51.220;7.250;2022-08-05T11:02:12;98584.06;;;18.30;100.00
54417;BME280;40326;51.220;7.250;2022-08-05T11:04:45;98570.81;;;18.99;100.00
54417;BME280;40326;51.220;7.250;2022-08-05T11:07:13;98570.69;;;18.57;100.00
54417;BME280;40326;51.220;7.250;2022-08-05T11:09:53;98570.09;;;19.39;100.00
54417;BME280;40326;51.220;7.250;2022-08-05T11:15:18;98572.25;;;18.92;100.00
54417;BME280;40326;51.220;7.250;2022-08-05T11:22:58;98610.22;;;17.71;100.00
54417;BME280;40326;51.220;7.250;2022-08-05T11:27:53;98629.25;;;18.60;100.00
54417;BME280;40326;51.220;7.250;2022-08-05T11:30:20;98599.75;;;19.15;100.00
54417;BME280;40326;51.220;7.250;2022-08-05T11:32:45;98602.97;;;18.76;100.00
54417;BME280;40326;51.220;7.250;2022-08-05T11:38:14;98597.66;;;18.77;100.00
54417;BME280;40326;51.220;7.250;2022-08-05T11:41:02;98601.75;;;19.12;100.00
54417;BME280;40326;51.220;7.250;2022-08-05T11:43:29;98595.19;;;19.08;100.00
54417;BME280;40326;51.220;7.250;2022-08-05T11:45:55;98607.06;;;19.10;100.00
54417;BME280;40326;51.220;7.250;2022-08-05T11:48:20;98602.38;;;19.78;100.00
54417;BME280;40326;51.220;7.250;2022-08-05T11:50:47;98594.66;;;19.14;100.00
54417;BME280;40326;51.220;7.250;2022-08-05T11:53:14;98594.59;;;20.28;100.00
54417;BME280;40326;51.220;7.250;2022-08-05T11:55:55;98581.63;;;19.67;100.00
54417;BME280;40326;51.220;7.250;2022-08-05T12:01:01;98586.00;;;19.87;100.00
54417;BME280;40326;51.220;7.250;2022-08-05T12:03:26;98586.63;;;19.79;100.00
54417;BME280;40326;51.220;7.250;2022-08-05T12:05:52;98578.78;;;20.40;100.00
54417;BME280;40326;51.220;7.250;2022-08-05T12:08:18;98570.91;;;20.81;100.00
54417;BME280;40326;51.220;7.250;2022-08-05T12:10:43;98561.19;;;20.13;100.00
54417;BME280;40326;51.220;7.250;2022-08-05T12:13:09;98575.56;;;19.15;100.00
54417;BME280;40326;51.220;7.250;2022-08-05T12:15:35;98575.38;;;19.07;100.00
54417;BME280;40326;51.220;7.250;2022-08-05T12:18:00;98572.56;;;20.22;100.00
54417;BME280;40326;51.220;7.250;2022-08-05T12:20:28;98571.31;;;19.55;100.00
54417;BME280;40326;51.220;7.250;2022-08-05T12:23:14;98571.16;;;19.68;100.00
54417;BME280;40326;51.220;7.250;2022-08-05T12:25:51;98565.53;;;19.31;100.00
54417;BME280;40326;51.220;7.250;2022-08-05T12:28:31;98569.13;;;20.22;100.00
54417;BME280;40326;51.220;7.250;2022-08-05T12:30:57;98561.72;;;21.06;100.00
54417;BME280;40326;51.220;7.250;2022-08-05T12:33:23;98567.22;;;21.32;100.00
54417;BME280;40326;51.220;7.250;2022-08-05T12:35:48;98561.81;;;21.90;100.00
54417;BME280;40326;51.220;7.250;2022-08-05T12:38:14;98564.03;;;21.38;100.00
54417;BME280;40326;51.220;7.250;2022-08-05T12:40:39;98578.84;;;21.08;100.00
54417;BME280;40326;51.220;7.250;2022-08-05T12:43:08;98571.47;;;20.94;100.00
54417;BME280;40326;51.220;7.250;2022-08-05T12:45:33;98566.47;;;22.23;100.00
54417;BME280;40326;51.220;7.250;2022-08-05T12:47:58;98581.16;;;21.02;100.00
54417;BME280;40326;51.220;7.250;2022-08-05T12:50:24;98595.81;;;20.74;100.00
54417;BME280;40326;51.220;7.250;2022-08-05T12:52:56;98595.13;;;20.22;100.00
54417;BME280;40326;51.220;7.250;2022-08-05T12:55:29;98600.25;;;20.02;100.00
54417;BME280;40326;51.220;7.250;2022-08-05T12:57:56;98609.53;;;20.26;100.00
54417;BME280;40326;51.220;7.250;2022-08-05T13:00:24;98602.63;;;20.46;100.00
54417;BME280;40326;51.220;7.250;2022-08-05T13:02:54;98602.63;;;20.55;100.00
54417;BME280;40326;51.220;7.250;2022-08-05T13:05:22;98595.16;;;22.23;100.00
54417;BME280;40326;51.220;7.250;2022-08-05T13:07:47;98587.75;;;20.96;100.00
54417;BME280;40326;51.220;7.250;2022-08-05T13:10:14;98589.06;;;21.68;100.00
54417;BME280;40326;51.220;7.250;2022-08-05T13:12:41;98604.81;;;21.76;100.00
54417;BME280;40326;51.220;7.250;2022-08-05T13:15:12;98596.50;;;22.27;100.00
54417;BME280;40326;51.220;7.250;2022-08-05T13:17:37;98585.38;;;22.53;100.00
54417;BME280;40326;51.220;7.250;2022-08-05T13:22:30;98589.03;;;22.42;100.00